Time;durP1;ratioP1;P1;durP2;ratioP2;P2;SDS_P1;SDS_P2;PMS_P1;PMS_P2;Temp;Humidity;BMP_temperature;BMP_pressure;BME280_temperature;BME280_humidity;BME280_pressure;Samples;Min_cycle;Max_cycle;Signal;HPM_P1;HPM_P2
2024/04/20 00:00:50;;;;;;;;;;;21.20;39.90;;;;;;3051613;19;4697;-31
2024/04/20 00:01:51;;;;;;;;;;;21.20;40.00;;;;;;3029916;19;4465;-31
2024/04/20 00:02:52;;;;;;;;;;;21.20;40.00;;;;;;3051910;19;4758;-29
2024/04/20 00:03:52;;;;;;;;;;;21.20;40.00;;;;;;3030317;19;4870;-31
2024/04/20 00:04:53;;;;;;;;;;;21.20;40.00;;;;;;3050839;19;4645;-31
2024/04/20 00:05:54;;;;;;;;;;;21.20;40.00;;;;;;3051924;19;4701;-32
2024/04/20 00:06:54;;;;;;;;;;;21.20;40.00;;;;;;3029511;19;4585;-29
2024/04/20 00:07:55;;;;;;;;;;;21.20;40.10;;;;;;3050072;19;4640;-33
2024/04/20 00:08:55;;;;;;;;;;;21.10;40.10;;;;;;3052027;19;4628;-34
2024/04/20 00:09:56;;;;;;;;;;;21.20;40.10;;;;;;3028812;19;4688;-33
2024/04/20 00:11:02;;;;;;;;;;;21.20;40.20;;;;;;3050027;19;4828;-32
2024/04/20 00:12:03;;;;;;;;;;;21.20;40.20;;;;;;3029497;19;4663;-32
2024/04/20 00:13:04;;;;;;;;;;;21.10;40.10;;;;;;3050323;19;4639;-31
2024/04/20 00:14:04;;;;;;;;;;;21.10;40.10;;;;;;3049241;19;4669;-30
2024/04/20 00:15:06;;;;;;;;;;;21.20;40.20;;;;;;3026091;19;4577;-32
2024/04/20 00:16:06;;;;;;;;;;;21.20;40.20;;;;;;3050667;19;4614;-30
2024/04/20 00:17:07;;;;;;;;;;;21.40;40.20;;;;;;3028561;19;4539;-32
2024/04/20 00:18:08;;;;;;;;;;;21.10;40.80;;;;;;3050606;19;4652;-31
2024/04/20 00:19:08;;;;;;;;;;;21.10;40.20;;;;;;3051103;19;4678;-34
2024/04/20 00:20:09;;;;;;;;;;;21.10;40.10;;;;;;3029443;19;4579;-33
2024/04/20 00:21:10;;;;;;;;;;;21.10;40.20;;;;;;3051435;19;1178;-33
2024/04/20 00:22:11;;;;;;;;;;;21.10;40.20;;;;;;3050859;19;4663;-34
2024/04/20 00:23:12;;;;;;;;;;;21.10;40.20;;;;;;3029079;19;4566;-34
2024/04/20 00:24:12;;;;;;;;;;;21.10;40.20;;;;;;3051017;19;4701;-34
2024/04/20 00:25:13;;;;;;;;;;;21.10;40.20;;;;;;3028967;19;4582;-33
2024/04/20 00:26:14;;;;;;;;;;;21.10;40.20;;;;;;3049415;19;4725;-31
2024/04/20 00:27:14;;;;;;;;;;;21.10;40.30;;;;;;3050958;19;4685;-30
2024/04/20 00:28:16;;;;;;;;;;;21.10;40.20;;;;;;3029446;19;4691;-35
2024/04/20 00:29:16;;;;;;;;;;;21.10;40.20;;;;;;3051685;19;4630;-29
2024/04/20 00:30:17;;;;;;;;;;;21.10;40.30;;;;;;3039229;19;4761;-33
2024/04/20 00:31:18;;;;;;;;;;;21.10;40.30;;;;;;3048088;19;4698;-30
2024/04/20 00:32:18;;;;;;;;;;;21.00;40.10;;;;;;3050468;19;4671;-32
2024/04/20 00:33:19;;;;;;;;;;;21.10;40.30;;;;;;3030118;19;4551;-29
2024/04/20 00:34:20;;;;;;;;;;;21.00;40.20;;;;;;3049690;19;4872;-30
2024/04/20 00:35:22;;;;;;;;;;;21.00;40.30;;;;;;3050385;19;4701;-32
2024/04/20 00:36:22;;;;;;;;;;;21.10;40.30;;;;;;3029461;19;4609;-31
2024/04/20 00:37:23;;;;;;;;;;;21.00;40.30;;;;;;3051042;19;4680;-33
2024/04/20 00:38:24;;;;;;;;;;;21.10;40.30;;;;;;3029891;19;4605;-30
2024/04/20 00:39:25;;;;;;;;;;;21.10;40.30;;;;;;3051417;19;4642;-31
2024/04/20 00:40:25;;;;;;;;;;;21.00;40.30;;;;;;3050811;19;4738;-29
2024/04/20 00:41:26;;;;;;;;;;;21.00;40.20;;;;;;3029878;19;4654;-32
2024/04/20 00:42:27;;;;;;;;;;;21.00;40.30;;;;;;3050894;19;4662;-31
2024/04/20 00:43:27;;;;;;;;;;;21.00;40.30;;;;;;3051409;19;4737;-32
2024/04/20 00:44:28;;;;;;;;;;;21.00;40.30;;;;;;3028844;19;4708;-31
2024/04/20 00:45:29;;;;;;;;;;;21.00;40.30;;;;;;3049789;19;4885;-23
2024/04/20 00:46:29;;;;;;;;;;;21.00;40.30;;;;;;3029223;19;4642;-24
2024/04/20 00:47:30;;;;;;;;;;;21.00;40.40;;;;;;3050552;19;4690;-26
2024/04/20 00:48:31;;;;;;;;;;;21.00;40.30;;;;;;3051033;19;4680;-25
2024/04/20 00:49:33;;;;;;;;;;;21.00;40.30;;;;;;3028955;19;4688;-26
2024/04/20 00:50:36;;;;;;;;;;;21.00;40.30;;;;;;3051217;19;5228;-25
2024/04/20 00:51:36;;;;;;;;;;;21.00;40.20;;;;;;3048138;19;4690;-25
2024/04/20 00:52:37;;;;;;;;;;;21.00;40.40;;;;;;3039059;19;4747;-24
2024/04/20 00:53:37;;;;;;;;;;;21.00;40.30;;;;;;3050340;19;4755;-23
2024/04/20 00:54:39;;;;;;;;;;;21.00;40.30;;;;;;3029660;19;4704;-25
2024/04/20 00:55:40;;;;;;;;;;;21.00;40.20;;;;;;3050508;19;4725;-30
2024/04/20 00:56:41;;;;;;;;;;;21.00;40.30;;;;;;3051174;19;4653;-30
2024/04/20 00:57:41;;;;;;;;;;;21.00;40.20;;;;;;3029131;19;4539;-31
2024/04/20 00:58:44;;;;;;;;;;;21.00;40.30;;;;;;3051277;19;4658;-30
2024/04/20 00:59:45;;;;;;;;;;;21.00;40.30;;;;;;3029858;19;4869;-32
2024/04/20 01:00:45;;;;;;;;;;;21.00;40.40;;;;;;3051289;19;4719;-29
2024/04/20 01:01:46;;;;;;;;;;;21.00;40.30;;;;;;3051025;19;4615;-32
2024/04/20 01:02:46;;;;;;;;;;;21.00;40.40;;;;;;3029232;19;4542;-30
2024/04/20 01:03:47;;;;;;;;;;;20.90;40.30;;;;;;3051069;19;4639;-33
2024/04/20 01:04:48;;;;;;;;;;;20.90;40.20;;;;;;3050388;19;4716;-32
2024/04/20 01:05:48;;;;;;;;;;;20.90;40.20;;;;;;3029431;19;4594;-31
2024/04/20 01:06:49;;;;;;;;;;;21.00;40.30;;;;;;3050617;19;4676;-33
2024/04/20 01:07:50;;;;;;;;;;;21.00;40.90;;;;;;3027112;19;4706;-32
2024/04/20 01:08:50;;;;;;;;;;;20.90;40.30;;;;;;3050169;19;4702;-29
2024/04/20 01:09:51;;;;;;;;;;;20.90;40.20;;;;;;3049815;19;4677;-32
2024/04/20 01:10:51;;;;;;;;;;;20.90;40.40;;;;;;3029534;19;4697;-30
2024/04/20 01:11:52;;;;;;;;;;;20.90;40.20;;;;;;3050510;19;4624;-33
2024/04/20 01:13:03;;;;;;;;;;;20.90;40.20;;;;;;3050470;19;4642;-31
2024/04/20 01:14:04;;;;;;;;;;;20.90;40.30;;;;;;3029803;19;5918;-32
2024/04/20 01:15:05;;;;;;;;;;;20.90;40.30;;;;;;3050908;19;4635;-32
2024/04/20 01:16:06;;;;;;;;;;;20.90;40.10;;;;;;3028884;19;4635;-26
2024/04/20 01:17:07;;;;;;;;;;;20.90;40.20;;;;;;3050785;19;1108;-24
2024/04/20 01:18:07;;;;;;;;;;;20.90;40.20;;;;;;3049774;19;4677;-26
2024/04/20 01:19:11;;;;;;;;;;;20.90;40.20;;;;;;3028894;19;4610;-26
2024/04/20 01:20:13;;;;;;;;;;;20.90;40.20;;;;;;3049961;19;4740;-24
2024/04/20 01:21:14;;;;;;;;;;;20.90;40.20;;;;;;3029003;19;4571;-23
2024/04/20 01:22:14;;;;;;;;;;;20.80;40.10;;;;;;3049942;19;4660;-23
2024/04/20 01:23:15;;;;;;;;;;;20.90;40.20;;;;;;3050394;19;4664;-24
2024/04/20 01:24:16;;;;;;;;;;;20.90;40.00;;;;;;3028964;19;4609;-23
2024/04/20 01:25:16;;;;;;;;;;;20.90;40.00;;;;;;3049452;19;4778;-26
2024/04/20 01:26:17;;;;;;;;;;;20.90;40.00;;;;;;3040528;19;4747;-23
2024/04/20 01:27:18;;;;;;;;;;;20.90;39.90;;;;;;3050636;19;4696;-24
2024/04/20 01:28:18;;;;;;;;;;;20.90;40.00;;;;;;3053248;19;4699;-23
2024/04/20 01:29:19;;;;;;;;;;;20.90;39.90;;;;;;3032154;19;4734;-25
2024/04/20 01:30:20;;;;;;;;;;;20.90;39.90;;;;;;3050958;19;4691;-25
2024/04/20 01:31:20;;;;;;;;;;;20.90;39.90;;;;;;3053178;19;4693;-25
2024/04/20 01:32:21;;;;;;;;;;;20.90;40.30;;;;;;3031657;19;4680;-24
2024/04/20 01:33:22;;;;;;;;;;;20.90;39.90;;;;;;3053873;19;4794;-25
2024/04/20 01:34:22;;;;;;;;;;;20.90;39.90;;;;;;3032227;19;4614;-24
2024/04/20 01:35:23;;;;;;;;;;;20.90;39.90;;;;;;3051689;19;4723;-24
2024/04/20 01:36:23;;;;;;;;;;;20.90;39.90;;;;;;3052705;19;4687;-24
2024/04/20 01:37:24;;;;;;;;;;;20.90;39.90;;;;;;3031992;19;4509;-26
2024/04/20 01:38:25;;;;;;;;;;;20.90;40.00;;;;;;3052299;19;4806;-23
2024/04/20 01:39:26;;;;;;;;;;;20.80;39.90;;;;;;3053283;19;4655;-23
2024/04/20 01:40:26;;;;;;;;;;;20.80;39.90;;;;;;3030722;19;4631;-23
2024/04/20 01:41:27;;;;;;;;;;;20.80;39.90;;;;;;3053009;19;4742;-24
2024/04/20 01:42:28;;;;;;;;;;;20.80;39.90;;;;;;3031550;19;4667;-24
2024/04/20 01:43:29;;;;;;;;;;;20.80;39.90;;;;;;3053413;19;4815;-23
2024/04/20 01:44:29;;;;;;;;;;;20.80;39.90;;;;;;3053288;19;4820;-23
2024/04/20 01:45:31;;;;;;;;;;;20.80;39.90;;;;;;3031272;19;4579;-24
2024/04/20 01:46:32;;;;;;;;;;;20.80;40.00;;;;;;3052736;19;4713;-23
2024/04/20 01:47:33;;;;;;;;;;;20.80;39.90;;;;;;3053275;19;4722;-24
2024/04/20 01:48:34;;;;;;;;;;;20.80;40.00;;;;;;3031925;19;4603;-25
2024/04/20 01:49:36;;;;;;;;;;;20.80;39.90;;;;;;3053174;19;4710;-23
2024/04/20 01:50:37;;;;;;;;;;;20.80;40.00;;;;;;3032473;19;4677;-24
2024/04/20 01:51:39;;;;;;;;;;;20.80;40.00;;;;;;3053477;19;4716;-24
2024/04/20 01:52:41;;;;;;;;;;;20.80;40.00;;;;;;3051896;19;4715;-24
2024/04/20 01:53:42;;;;;;;;;;;20.80;40.00;;;;;;3031960;19;4556;-25
2024/04/20 01:54:42;;;;;;;;;;;20.80;39.90;;;;;;3053743;19;4829;-25
2024/04/20 01:55:43;;;;;;;;;;;20.80;39.90;;;;;;3032447;19;4620;-24
2024/04/20 01:56:44;;;;;;;;;;;20.80;39.90;;;;;;3053890;19;4672;-23
2024/04/20 01:57:44;;;;;;;;;;;20.80;40.00;;;;;;3052966;19;4685;-27
2024/04/20 01:58:45;;;;;;;;;;;20.80;40.10;;;;;;3032670;19;4638;-26
2024/04/20 01:59:45;;;;;;;;;;;20.80;40.00;;;;;;3052645;19;4701;-26
2024/04/20 02:00:46;;;;;;;;;;;20.70;39.90;;;;;;3051741;19;4741;-23
2024/04/20 02:01:51;;;;;;;;;;;20.70;39.90;;;;;;3030979;19;4570;-26
2024/04/20 02:02:51;;;;;;;;;;;20.70;39.90;;;;;;3053392;19;4619;-23
2024/04/20 02:03:52;;;;;;;;;;;20.70;40.10;;;;;;3031470;19;4610;-25
2024/04/20 02:04:53;;;;;;;;;;;20.70;40.00;;;;;;3053412;19;4717;-25
2024/04/20 02:05:53;;;;;;;;;;;20.70;40.10;;;;;;3053428;19;4683;-24
2024/04/20 02:06:55;;;;;;;;;;;20.70;40.00;;;;;;3030096;19;4641;-24
2024/04/20 02:07:56;;;;;;;;;;;20.70;40.00;;;;;;3052481;19;4678;-25
2024/04/20 02:08:57;;;;;;;;;;;20.70;40.20;;;;;;3050854;19;4786;-25
2024/04/20 02:09:59;;;;;;;;;;;20.70;40.10;;;;;;3052819;19;4651;-26
2024/04/20 02:11:00;;;;;;;;;;;20.70;40.10;;;;;;3054194;19;4608;-24
2024/04/20 02:12:00;;;;;;;;;;;20.70;40.00;;;;;;3031987;19;4851;-25
2024/04/20 02:13:01;;;;;;;;;;;20.70;40.10;;;;;;3052887;19;4617;-24
2024/04/20 02:14:02;;;;;;;;;;;20.70;40.00;;;;;;3053473;19;4602;-26
2024/04/20 02:15:03;;;;;;;;;;;20.70;40.10;;;;;;3031176;19;4740;-27
2024/04/20 02:16:03;;;;;;;;;;;20.70;40.10;;;;;;3053693;19;4668;-24
2024/04/20 02:17:04;;;;;;;;;;;20.70;40.10;;;;;;3032656;19;5043;-27
2024/04/20 02:18:05;;;;;;;;;;;20.70;40.00;;;;;;3053314;19;4558;-24
2024/04/20 02:19:06;;;;;;;;;;;20.70;40.00;;;;;;3053621;19;5097;-26
2024/04/20 02:20:06;;;;;;;;;;;20.70;40.00;;;;;;3030818;19;5129;-24
2024/04/20 02:21:07;;;;;;;;;;;20.70;40.10;;;;;;3052452;19;4728;-25
2024/04/20 02:22:08;;;;;;;;;;;20.70;40.10;;;;;;3054406;19;4693;-25
2024/04/20 02:23:09;;;;;;;;;;;20.70;40.00;;;;;;3031404;19;4553;-24
2024/04/20 02:24:11;;;;;;;;;;;20.60;40.10;;;;;;3054452;19;1167;-24
2024/04/20 02:25:12;;;;;;;;;;;20.60;40.10;;;;;;3031548;19;4593;-23
2024/04/20 02:26:13;;;;;;;;;;;20.60;40.20;;;;;;3054351;19;4662;-22
2024/04/20 02:27:14;;;;;;;;;;;20.70;40.20;;;;;;3054151;19;4892;-23
2024/04/20 02:28:14;;;;;;;;;;;20.60;40.10;;;;;;3031706;19;4677;-23
2024/04/20 02:29:15;;;;;;;;;;;20.60;40.20;;;;;;3053882;19;4718;-25
2024/04/20 02:30:16;;;;;;;;;;;20.60;40.10;;;;;;3054226;19;4710;-26
2024/04/20 02:31:16;;;;;;;;;;;20.60;40.20;;;;;;3031320;19;21859;-23
2024/04/20 02:32:17;;;;;;;;;;;20.60;40.00;;;;;;3053970;19;4706;-27
2024/04/20 02:33:17;;;;;;;;;;;20.60;40.00;;;;;;3032289;19;4528;-28
2024/04/20 02:34:18;;;;;;;;;;;20.60;40.20;;;;;;3052746;19;4688;-24
2024/04/20 02:35:19;;;;;;;;;;;20.70;40.20;;;;;;3052593;19;4727;-24
2024/04/20 02:36:23;;;;;;;;;;;20.70;40.20;;;;;;3030183;19;4531;-25
2024/04/20 02:37:24;;;;;;;;;;;20.70;40.20;;;;;;3051461;19;4745;-25
2024/04/20 02:38:25;;;;;;;;;;;20.70;40.20;;;;;;3027986;19;4881;-24
2024/04/20 02:39:25;;;;;;;;;;;20.80;40.20;;;;;;3052396;19;4758;-25
2024/04/20 02:40:26;;;;;;;;;;;20.80;40.10;;;;;;3053058;19;5143;-23
2024/04/20 02:41:28;;;;;;;;;;;20.90;40.00;;;;;;3032358;19;4561;-24
2024/04/20 02:42:28;;;;;;;;;;;20.90;39.90;;;;;;3053792;19;4729;-25
2024/04/20 02:43:29;;;;;;;;;;;21.00;39.80;;;;;;3053360;19;4635;-24
2024/04/20 02:44:29;;;;;;;;;;;21.10;39.80;;;;;;3031804;19;4769;-25
2024/04/20 02:45:30;;;;;;;;;;;21.10;39.80;;;;;;3052761;19;4795;-24
2024/04/20 02:46:32;;;;;;;;;;;21.10;39.70;;;;;;3032505;19;4659;-23
2024/04/20 02:47:33;;;;;;;;;;;21.10;39.70;;;;;;3053514;19;4696;-26
2024/04/20 02:48:33;;;;;;;;;;;21.10;39.70;;;;;;3052850;19;4675;-25
2024/04/20 02:49:34;;;;;;;;;;;21.10;39.70;;;;;;3032324;19;4531;-25
2024/04/20 02:50:34;;;;;;;;;;;21.00;39.60;;;;;;3053830;19;4693;-24
2024/04/20 02:51:35;;;;;;;;;;;21.10;39.60;;;;;;3053134;19;4747;-24
2024/04/20 02:52:36;;;;;;;;;;;21.10;39.60;;;;;;3031646;19;4652;-23
2024/04/20 02:53:36;;;;;;;;;;;21.10;39.50;;;;;;3053004;19;4684;-24
2024/04/20 02:54:37;;;;;;;;;;;21.20;39.40;;;;;;3032450;19;4670;-25
2024/04/20 02:55:37;;;;;;;;;;;21.20;39.30;;;;;;3053509;19;4657;-27
2024/04/20 02:56:38;;;;;;;;;;;21.20;39.30;;;;;;3054160;19;4750;-30
2024/04/20 02:57:39;;;;;;;;;;;21.30;39.20;;;;;;3031857;19;4497;-30
2024/04/20 02:58:39;;;;;;;;;;;21.30;39.30;;;;;;3053401;19;4606;-31
2024/04/20 02:59:40;;;;;;;;;;;21.30;39.20;;;;;;3032403;19;4664;-30
2024/04/20 03:00:41;;;;;;;;;;;21.30;39.20;;;;;;3052708;19;4617;-31
2024/04/20 03:01:41;;;;;;;;;;;21.30;39.10;;;;;;3053972;19;4642;-30
2024/04/20 03:02:42;;;;;;;;;;;21.30;39.10;;;;;;3031071;19;4749;-30
2024/04/20 03:03:42;;;;;;;;;;;21.30;39.20;;;;;;3052848;19;4678;-31
2024/04/20 03:04:43;;;;;;;;;;;21.30;39.10;;;;;;3052330;19;4705;-32
2024/04/20 03:05:44;;;;;;;;;;;21.30;39.10;;;;;;3030796;19;4509;-33
2024/04/20 03:06:44;;;;;;;;;;;21.30;39.10;;;;;;3052827;19;4815;-24
2024/04/20 03:07:45;;;;;;;;;;;21.30;39.10;;;;;;3030748;19;4759;-24
2024/04/20 03:08:45;;;;;;;;;;;21.30;39.00;;;;;;3051485;19;4630;-25
2024/04/20 03:09:46;;;;;;;;;;;21.40;38.90;;;;;;3053131;19;4691;-27
2024/04/20 03:10:47;;;;;;;;;;;21.40;39.50;;;;;;3032041;19;4627;-25
2024/04/20 03:11:47;;;;;;;;;;;21.40;38.70;;;;;;3052456;19;4830;-25
2024/04/20 03:12:51;;;;;;;;;;;21.50;38.70;;;;;;3052173;19;4700;-24
2024/04/20 03:13:55;;;;;;;;;;;21.50;38.70;;;;;;3029292;19;4530;-25
2024/04/20 03:14:56;;;;;;;;;;;21.50;38.60;;;;;;3049744;19;4657;-24
2024/04/20 03:16:02;;;;;;;;;;;21.50;38.60;;;;;;3030798;19;4599;-23
2024/04/20 03:17:03;;;;;;;;;;;21.50;38.60;;;;;;3052244;19;4705;-26
2024/04/20 03:18:04;;;;;;;;;;;21.50;38.60;;;;;;3051923;19;4622;-24
2024/04/20 03:19:04;;;;;;;;;;;21.50;39.30;;;;;;3031069;19;4586;-24
2024/04/20 03:20:05;;;;;;;;;;;21.50;38.60;;;;;;3050835;19;4573;-26
2024/04/20 03:21:06;;;;;;;;;;;21.50;38.60;;;;;;3028921;19;4700;-24
2024/04/20 03:22:07;;;;;;;;;;;21.50;38.60;;;;;;3052159;19;4721;-24
2024/04/20 03:23:07;;;;;;;;;;;21.40;38.70;;;;;;3050720;19;4930;-24
2024/04/20 03:24:08;;;;;;;;;;;21.40;38.70;;;;;;3030435;19;4635;-23
2024/04/20 03:25:12;;;;;;;;;;;21.40;38.60;;;;;;3051992;19;4915;-25
2024/04/20 03:26:12;;;;;;;;;;;21.40;38.50;;;;;;3052615;19;4711;-25
2024/04/20 03:27:13;;;;;;;;;;;21.40;38.70;;;;;;3030250;19;4605;-24
2024/04/20 03:28:14;;;;;;;;;;;21.30;38.60;;;;;;3051973;19;1327;-24
2024/04/20 03:29:14;;;;;;;;;;;21.40;38.60;;;;;;3030776;19;4724;-24
2024/04/20 03:30:15;;;;;;;;;;;21.40;38.60;;;;;;3051750;19;4703;-27
2024/04/20 03:31:15;;;;;;;;;;;21.40;38.50;;;;;;3052555;19;5184;-24
2024/04/20 03:32:16;;;;;;;;;;;21.40;38.50;;;;;;3031193;19;4609;-25
2024/04/20 03:33:18;;;;;;;;;;;21.40;38.50;;;;;;3051766;19;4656;-24
2024/04/20 03:34:19;;;;;;;;;;;21.40;38.50;;;;;;3030435;19;4810;-23
2024/04/20 03:35:19;;;;;;;;;;;21.40;38.50;;;;;;3051814;19;4699;-25
2024/04/20 03:36:21;;;;;;;;;;;21.40;38.60;;;;;;3052306;19;4664;-24
2024/04/20 03:37:22;;;;;;;;;;;21.40;38.60;;;;;;3030251;19;4520;-30
2024/04/20 03:38:23;;;;;;;;;;;21.50;38.60;;;;;;3051909;19;4667;-33
2024/04/20 03:39:24;;;;;;;;;;;21.40;39.20;;;;;;3051086;19;4666;-32
2024/04/20 03:40:25;;;;;;;;;;;21.40;38.50;;;;;;3030327;19;4551;-33
2024/04/20 03:41:25;;;;;;;;;;;21.40;38.50;;;;;;3051719;19;4692;-34
2024/04/20 03:42:27;;;;;;;;;;;21.40;38.50;;;;;;3028973;19;4700;-33
2024/04/20 03:43:27;;;;;;;;;;;21.40;38.50;;;;;;3049001;19;4653;-31
2024/04/20 03:44:28;;;;;;;;;;;21.40;38.50;;;;;;3050850;19;4725;-33
2024/04/20 03:45:29;;;;;;;;;;;21.50;38.60;;;;;;3029342;19;4617;-31
2024/04/20 03:46:29;;;;;;;;;;;21.50;38.60;;;;;;3052419;19;4710;-31
2024/04/20 03:47:30;;;;;;;;;;;21.50;38.40;;;;;;3052779;19;4723;-24
2024/04/20 03:48:32;;;;;;;;;;;21.60;38.40;;;;;;3029556;19;4604;-25
2024/04/20 03:49:32;;;;;;;;;;;21.60;38.30;;;;;;3050647;19;4712;-25
2024/04/20 03:50:33;;;;;;;;;;;21.70;38.20;;;;;;3030426;19;4714;-26
2024/04/20 03:51:34;;;;;;;;;;;21.70;38.10;;;;;;3051326;19;4778;-25
2024/04/20 03:52:34;;;;;;;;;;;21.70;38.00;;;;;;3051620;19;4721;-24
2024/04/20 03:53:35;;;;;;;;;;;21.70;37.90;;;;;;3029224;19;4799;-24
2024/04/20 03:54:36;;;;;;;;;;;21.80;38.00;;;;;;3052341;19;4847;-24
2024/04/20 03:55:36;;;;;;;;;;;21.80;37.90;;;;;;3050605;19;4788;-24
2024/04/20 03:56:37;;;;;;;;;;;21.80;38.50;;;;;;3038742;19;4681;-24
2024/04/20 03:57:37;;;;;;;;;;;21.80;38.50;;;;;;3052248;19;4730;-29
2024/04/20 03:58:38;;;;;;;;;;;21.80;37.80;;;;;;3030708;19;4798;-31
2024/04/20 03:59:39;;;;;;;;;;;21.80;37.80;;;;;;3051412;19;4696;-32
2024/04/20 04:00:39;;;;;;;;;;;21.80;37.70;;;;;;3052902;19;4703;-32
2024/04/20 04:01:40;;;;;;;;;;;21.80;37.80;;;;;;3030141;19;4503;-30
2024/04/20 04:02:41;;;;;;;;;;;21.80;37.70;;;;;;3051878;19;4789;-33
2024/04/20 04:03:41;;;;;;;;;;;21.70;37.70;;;;;;3029873;19;4718;-32
2024/04/20 04:04:42;;;;;;;;;;;21.70;37.70;;;;;;3052412;19;4629;-32
2024/04/20 04:05:43;;;;;;;;;;;21.70;37.80;;;;;;3050614;19;4776;-31
2024/04/20 04:06:43;;;;;;;;;;;21.70;37.80;;;;;;3030848;19;4650;-33
2024/04/20 04:07:44;;;;;;;;;;;21.70;37.80;;;;;;3051328;19;4732;-30
2024/04/20 04:08:45;;;;;;;;;;;21.70;37.90;;;;;;3051116;19;4659;-33
2024/04/20 04:09:46;;;;;;;;;;;21.70;37.90;;;;;;3030666;19;4678;-30
2024/04/20 04:10:47;;;;;;;;;;;21.70;38.00;;;;;;3051121;19;4955;-32
2024/04/20 04:11:48;;;;;;;;;;;21.60;38.00;;;;;;3030927;19;4622;-32
2024/04/20 04:12:48;;;;;;;;;;;21.60;38.00;;;;;;3051438;19;4624;-33
2024/04/20 04:13:49;;;;;;;;;;;21.60;38.80;;;;;;3051417;19;4666;-33
2024/04/20 04:14:49;;;;;;;;;;;21.60;38.20;;;;;;3028621;19;4718;-32
2024/04/20 04:15:50;;;;;;;;;;;21.60;38.10;;;;;;3051934;19;4590;-32
2024/04/20 04:16:52;;;;;;;;;;;21.50;38.10;;;;;;3052106;19;4663;-35
2024/04/20 04:17:53;;;;;;;;;;;21.50;38.10;;;;;;3030766;19;4456;-30
2024/04/20 04:18:54;;;;;;;;;;;21.50;38.10;;;;;;3050987;19;4633;-31
2024/04/20 04:19:54;;;;;;;;;;;21.50;38.30;;;;;;3030743;19;4783;-34
2024/04/20 04:20:55;;;;;;;;;;;21.50;38.30;;;;;;3050174;19;4758;-33
2024/04/20 04:21:58;;;;;;;;;;;21.60;38.30;;;;;;3051887;19;4684;-31
2024/04/20 04:23:00;;;;;;;;;;;21.60;38.30;;;;;;3029173;19;4655;-33
2024/04/20 04:24:01;;;;;;;;;;;21.70;38.20;;;;;;3051185;19;4740;-32
2024/04/20 04:25:01;;;;;;;;;;;21.70;38.20;;;;;;3030015;19;4617;-33
2024/04/20 04:26:03;;;;;;;;;;;21.70;38.10;;;;;;3052065;19;4613;-31
2024/04/20 04:27:11;;;;;;;;;;;21.70;38.00;;;;;;3050182;19;4674;-32
2024/04/20 04:28:12;;;;;;;;;;;21.70;38.10;;;;;;3029391;19;4636;-34
2024/04/20 04:29:13;;;;;;;;;;;21.70;38.00;;;;;;3050584;19;4725;-33
2024/04/20 04:30:13;;;;;;;;;;;21.70;37.90;;;;;;3050746;19;4759;-35
2024/04/20 04:31:15;;;;;;;;;;;21.80;38.00;;;;;;3030223;19;4550;-33
2024/04/20 04:32:16;;;;;;;;;;;21.80;38.00;;;;;;3051460;19;4717;-31
2024/04/20 04:33:16;;;;;;;;;;;21.70;37.90;;;;;;3030333;19;5155;-29
2024/04/20 04:34:17;;;;;;;;;;;21.70;37.90;;;;;;3051364;19;4712;-32
2024/04/20 04:35:18;;;;;;;;;;;21.70;37.90;;;;;;3050938;19;4678;-32
2024/04/20 04:36:18;;;;;;;;;;;21.70;37.90;;;;;;3029370;19;4577;-30
2024/04/20 04:37:19;;;;;;;;;;;21.70;38.00;;;;;;3050389;19;4699;-33
2024/04/20 04:38:20;;;;;;;;;;;21.70;38.00;;;;;;3029875;19;4730;-29
2024/04/20 04:39:20;;;;;;;;;;;21.70;38.00;;;;;;3051147;19;4652;-32
2024/04/20 04:40:22;;;;;;;;;;;21.70;38.10;;;;;;3050793;19;4672;-31
2024/04/20 04:41:24;;;;;;;;;;;21.70;38.10;;;;;;3030121;19;4545;-30
2024/04/20 04:42:26;;;;;;;;;;;21.70;38.10;;;;;;3051174;19;4711;-33
2024/04/20 04:43:27;;;;;;;;;;;21.60;38.10;;;;;;3051676;19;4647;-32
2024/04/20 04:44:27;;;;;;;;;;;21.60;38.10;;;;;;3028832;19;4599;-32
2024/04/20 04:45:29;;;;;;;;;;;21.60;38.20;;;;;;3051351;19;4768;-32
2024/04/20 04:46:30;;;;;;;;;;;21.60;38.60;;;;;;3029074;19;4720;-33
2024/04/20 04:47:30;;;;;;;;;;;21.60;38.20;;;;;;3051431;19;4757;-34
2024/04/20 04:48:31;;;;;;;;;;;21.60;38.30;;;;;;3050080;19;4762;-32
2024/04/20 04:49:32;;;;;;;;;;;20.70;37.70;;;;;;3029592;19;4604;-31
2024/04/20 04:50:33;;;;;;;;;;;21.70;38.20;;;;;;3050219;19;4721;-33
2024/04/20 04:51:33;;;;;;;;;;;21.70;38.10;;;;;;3051779;19;4680;-33
2024/04/20 04:52:34;;;;;;;;;;;21.70;38.00;;;;;;3029225;19;4554;-31
2024/04/20 04:53:35;;;;;;;;;;;21.80;38.00;;;;;;3051457;19;4624;-30
2024/04/20 04:54:35;;;;;;;;;;;21.80;38.00;;;;;;3029558;19;4715;-30
2024/04/20 04:55:36;;;;;;;;;;;21.80;38.00;;;;;;3050842;19;4804;-33
2024/04/20 04:56:37;;;;;;;;;;;21.80;38.10;;;;;;3050437;19;4648;-32
2024/04/20 04:57:37;;;;;;;;;;;21.80;38.00;;;;;;3029790;19;4504;-33
2024/04/20 04:58:38;;;;;;;;;;;21.80;38.00;;;;;;3051219;19;4833;-30
2024/04/20 04:59:39;;;;;;;;;;;21.80;37.90;;;;;;3029480;19;4754;-30
2024/04/20 05:00:39;;;;;;;;;;;21.80;38.00;;;;;;3050888;19;4828;-31
2024/04/20 05:01:41;;;;;;;;;;;21.80;37.90;;;;;;3052369;19;4629;-31
2024/04/20 05:02:41;;;;;;;;;;;21.80;38.00;;;;;;3033077;19;4691;-35
2024/04/20 05:03:42;;;;;;;;;;;21.80;37.90;;;;;;3053609;19;4622;-30
2024/04/20 05:04:43;;;;;;;;;;;21.80;37.90;;;;;;3053744;19;4721;-31
2024/04/20 05:05:48;;;;;;;;;;;21.80;37.80;;;;;;3031346;19;4535;-32
2024/04/20 05:06:49;;;;;;;;;;;21.80;37.80;;;;;;3054266;19;4679;-33
2024/04/20 05:07:49;;;;;;;;;;;21.80;37.90;;;;;;3032661;19;4642;-32
2024/04/20 05:08:50;;;;;;;;;;;21.80;37.80;;;;;;3053609;19;4657;-30
2024/04/20 05:09:50;;;;;;;;;;;21.80;37.80;;;;;;3053199;19;4666;-35
2024/04/20 05:10:51;;;;;;;;;;;21.80;37.80;;;;;;3031291;19;4682;-34
2024/04/20 05:11:52;;;;;;;;;;;21.80;37.80;;;;;;3053499;19;4620;-33
2024/04/20 05:12:52;;;;;;;;;;;21.80;38.50;;;;;;3054788;19;4632;-32
2024/04/20 05:13:53;;;;;;;;;;;21.80;37.80;;;;;;3032614;19;4506;-33
2024/04/20 05:14:54;;;;;;;;;;;21.80;37.90;;;;;;3050901;19;4654;-33
2024/04/20 05:15:55;;;;;;;;;;;21.80;37.90;;;;;;3031883;19;4638;-32
2024/04/20 05:16:55;;;;;;;;;;;21.80;37.90;;;;;;3053041;19;4670;-34
2024/04/20 05:17:56;;;;;;;;;;;21.80;37.90;;;;;;3054137;19;4718;-33
2024/04/20 05:18:57;;;;;;;;;;;21.80;37.90;;;;;;3031994;19;4645;-34
2024/04/20 05:19:57;;;;;;;;;;;21.80;37.90;;;;;;3053609;19;4587;-30
2024/04/20 05:20:58;;;;;;;;;;;21.80;38.00;;;;;;3032420;19;4666;-31
2024/04/20 05:21:59;;;;;;;;;;;21.80;37.90;;;;;;3053848;19;4670;-33
2024/04/20 05:22:59;;;;;;;;;;;21.70;37.90;;;;;;3052853;19;4656;-31
2024/04/20 05:24:00;;;;;;;;;;;21.70;37.90;;;;;;3031617;19;4604;-33
2024/04/20 05:25:00;;;;;;;;;;;21.70;38.00;;;;;;3053547;19;4907;-31
2024/04/20 05:26:02;;;;;;;;;;;21.70;38.00;;;;;;3054145;19;4695;-31
2024/04/20 05:27:03;;;;;;;;;;;21.70;38.00;;;;;;3032339;19;4632;-33
2024/04/20 05:28:03;;;;;;;;;;;21.70;38.00;;;;;;3053968;19;4596;-34
2024/04/20 05:29:04;;;;;;;;;;;21.80;38.00;;;;;;3032664;19;4620;-23
2024/04/20 05:30:05;;;;;;;;;;;21.80;38.00;;;;;;3053165;19;4613;-23
2024/04/20 05:31:06;;;;;;;;;;;21.80;37.90;;;;;;3052069;19;7766;-24
2024/04/20 05:32:07;;;;;;;;;;;21.80;37.80;;;;;;3032606;19;4544;-23
2024/04/20 05:33:08;;;;;;;;;;;21.90;37.80;;;;;;3053918;19;4963;-25
2024/04/20 05:34:08;;;;;;;;;;;21.90;37.70;;;;;;3054738;19;1067;-25
2024/04/20 05:35:09;;;;;;;;;;;21.90;37.60;;;;;;3030529;19;4682;-25
2024/04/20 05:36:10;;;;;;;;;;;21.90;37.50;;;;;;3052383;19;4718;-24
2024/04/20 05:37:11;;;;;;;;;;;22.00;37.60;;;;;;3032898;19;4892;-26
2024/04/20 05:38:11;;;;;;;;;;;22.00;37.50;;;;;;3051558;19;4768;-24
2024/04/20 05:39:13;;;;;;;;;;;22.00;37.40;;;;;;3052634;19;4651;-24
2024/04/20 05:40:13;;;;;;;;;;;22.00;37.40;;;;;;3032167;19;4566;-23
2024/04/20 05:41:14;;;;;;;;;;;22.00;37.30;;;;;;3053714;19;4671;-24
2024/04/20 05:42:15;;;;;;;;;;;22.00;37.30;;;;;;3053881;19;1090;-24
2024/04/20 05:43:15;;;;;;;;;;;22.00;37.30;;;;;;3030672;19;4593;-24
2024/04/20 05:44:17;;;;;;;;;;;22.00;37.30;;;;;;3053201;19;4710;-24
2024/04/20 05:45:18;;;;;;;;;;;22.00;37.30;;;;;;3030937;19;4602;-24
2024/04/20 05:46:18;;;;;;;;;;;22.00;37.30;;;;;;3053161;19;4709;-23
2024/04/20 05:47:19;;;;;;;;;;;22.00;37.10;;;;;;3052904;19;4696;-24
2024/04/20 05:48:19;;;;;;;;;;;22.10;37.20;;;;;;3029681;19;4569;-23
2024/04/20 05:49:20;;;;;;;;;;;22.10;37.20;;;;;;3047999;19;4781;-23
2024/04/20 05:50:21;;;;;;;;;;;22.10;37.20;;;;;;3051408;19;4166;-24
2024/04/20 05:51:21;;;;;;;;;;;22.10;37.10;;;;;;3052301;19;4750;-23
2024/04/20 05:52:22;;;;;;;;;;;22.10;37.10;;;;;;3052433;19;4714;-24
2024/04/20 05:53:23;;;;;;;;;;;22.00;37.00;;;;;;3033327;19;4575;-24
2024/04/20 05:54:23;;;;;;;;;;;22.10;37.10;;;;;;3052127;19;4761;-23
2024/04/20 05:55:24;;;;;;;;;;;22.10;37.10;;;;;;3051336;19;4676;-26
2024/04/20 05:56:24;;;;;;;;;;;22.10;37.10;;;;;;3033684;19;4868;-26
2024/04/20 05:57:25;;;;;;;;;;;22.10;37.20;;;;;;3050831;19;4693;-24
2024/04/20 05:58:26;;;;;;;;;;;22.10;37.20;;;;;;3030493;19;4696;-23
2024/04/20 05:59:26;;;;;;;;;;;22.00;37.00;;;;;;3051389;19;4720;-24
2024/04/20 06:00:27;;;;;;;;;;;22.10;37.20;;;;;;3053821;19;4685;-25